createdAt,value
2023-02-04T00:00:11.901Z,85.06
2023-02-04T00:01:12.082Z,85.17
2023-02-04T00:02:11.880Z,84.75
2023-02-04T00:03:11.866Z,84.96
2023-02-04T00:04:11.847Z,84.86
2023-02-04T00:05:11.856Z,84.75
2023-02-04T00:06:11.896Z,85.17
2023-02-04T00:07:11.862Z,84.75
2023-02-04T00:08:11.806Z,85.17
2023-02-04T00:09:11.791Z,84.75
2023-02-04T00:10:11.787Z,84.86
2023-02-04T00:11:11.790Z,85.06
2023-02-04T00:12:11.805Z,84.75
2023-02-04T00:13:11.815Z,84.96
2023-02-04T00:14:11.737Z,84.65
2023-02-04T00:15:11.729Z,84.86
2023-02-04T00:16:11.773Z,84.86
2023-02-04T00:17:11.727Z,84.86
2023-02-04T00:18:11.713Z,84.86
2023-02-04T00:19:11.801Z,84.86
2023-02-04T00:20:11.690Z,84.75
2023-02-04T00:21:11.655Z,84.75
2023-02-04T00:22:11.657Z,84.86
2023-02-04T00:23:11.632Z,84.55
2023-02-04T00:24:11.654Z,84.96
2023-02-04T00:25:11.642Z,85.06
2023-02-04T00:26:11.604Z,84.90
2023-02-04T00:27:11.592Z,85.00
2023-02-04T00:28:11.659Z,84.90
2023-02-04T00:29:11.583Z,85.00
2023-02-04T00:30:11.554Z,84.65
2023-02-04T00:31:11.698Z,84.90
2023-02-04T00:32:11.796Z,84.86
2023-02-04T00:33:11.548Z,84.69
2023-02-04T00:34:11.528Z,85.00
2023-02-04T00:35:11.497Z,85.00
2023-02-04T00:36:11.496Z,85.00
2023-02-04T00:37:11.514Z,84.90
2023-02-04T00:38:11.466Z,84.80
2023-02-04T00:39:11.460Z,84.80
2023-02-04T00:40:11.447Z,85.63
2023-02-04T00:41:11.435Z,85.11
2023-02-04T00:42:11.498Z,85.00
2023-02-04T00:43:11.421Z,85.11
2023-02-04T00:44:11.401Z,85.83
2023-02-04T00:45:11.410Z,85.21
2023-02-04T00:46:11.437Z,84.65
2023-02-04T00:47:11.363Z,85.00
2023-02-04T00:48:11.356Z,85.00
2023-02-04T00:49:11.397Z,84.69
2023-02-04T00:50:11.330Z,85.21
2023-02-04T00:51:11.315Z,84.75
2023-02-04T00:52:11.346Z,85.00
2023-02-04T00:53:11.303Z,84.90
2023-02-04T00:54:11.287Z,84.69
2023-02-04T00:55:11.328Z,84.96
2023-02-04T00:56:11.256Z,84.80
2023-02-04T00:57:11.251Z,85.00
2023-02-04T00:58:11.247Z,84.69
2023-02-04T00:59:11.261Z,84.90
2023-02-04T01:00:11.228Z,84.90
2023-02-04T01:01:11.316Z,84.59
2023-02-04T01:02:11.199Z,84.59
2023-02-04T01:03:11.282Z,85.00
2023-02-04T01:04:11.171Z,84.80
2023-02-04T01:05:11.195Z,84.69
2023-02-04T01:06:11.155Z,84.69
2023-02-04T01:07:11.262Z,85.06
2023-02-04T01:08:11.153Z,84.80
2023-02-04T01:09:11.121Z,85.63
2023-02-04T01:10:11.110Z,85.17
2023-02-04T01:11:11.095Z,85.69
2023-02-04T01:12:11.138Z,85.38
2023-02-04T01:13:11.108Z,85.49
2023-02-04T01:14:11.098Z,85.38
2023-02-04T01:15:11.051Z,85.69
2023-02-04T01:16:11.126Z,85.69
2023-02-04T01:17:11.062Z,85.80
2023-02-04T01:18:11.017Z,85.59
2023-02-04T01:19:11.045Z,85.38
2023-02-04T01:20:11.031Z,85.42
2023-02-04T01:21:11.016Z,85.28
2023-02-04T01:22:10.972Z,85.49
2023-02-04T01:23:10.958Z,85.49
2023-02-04T01:24:10.954Z,85.69
2023-02-04T01:25:11.034Z,85.49
2023-02-04T01:26:10.933Z,85.59
2023-02-04T01:27:10.915Z,85.38
2023-02-04T01:28:10.958Z,85.38
2023-02-04T01:29:10.890Z,85.80
2023-02-04T01:30:10.903Z,85.38
2023-02-04T01:31:11.036Z,85.69
2023-02-04T01:32:10.883Z,85.38
2023-02-04T01:33:10.848Z,85.49
2023-02-04T01:34:10.836Z,85.28
2023-02-04T01:35:10.830Z,85.38
2023-02-04T01:36:10.808Z,85.38
2023-02-04T01:37:10.863Z,85.49
2023-02-04T01:38:10.796Z,85.38
2023-02-04T01:39:10.786Z,85.80
2023-02-04T01:40:10.770Z,85.49
2023-02-04T01:41:10.757Z,85.38
2023-02-04T01:42:10.740Z,85.28
2023-02-04T01:43:10.749Z,85.49
2023-02-04T01:44:10.724Z,85.49
2023-02-04T01:45:10.728Z,85.49
2023-02-04T01:46:10.767Z,85.06
2023-02-04T01:47:10.731Z,85.28
2023-02-04T01:48:10.675Z,85.38
2023-02-04T01:49:10.698Z,85.80
2023-02-04T01:50:10.663Z,85.49
2023-02-04T01:51:10.648Z,85.49
2023-02-04T01:52:10.650Z,85.69
2023-02-04T01:53:10.654Z,85.69
2023-02-04T01:54:10.613Z,85.38
2023-02-04T01:55:10.630Z,85.59
2023-02-04T01:56:10.594Z,85.49
2023-02-04T01:57:10.603Z,85.59
2023-02-04T01:58:10.566Z,85.38
2023-02-04T01:59:10.557Z,85.90
2023-02-04T02:00:10.564Z,85.49
2023-02-04T02:01:10.719Z,85.49
2023-02-04T02:02:10.569Z,85.38
2023-02-04T02:03:10.503Z,85.59
2023-02-04T02:04:10.497Z,85.59
2023-02-04T02:05:10.484Z,85.06
2023-02-04T02:06:10.474Z,84.96
2023-02-04T02:07:10.529Z,84.96
2023-02-04T02:08:10.455Z,85.06
2023-02-04T02:09:10.512Z,84.96
2023-02-04T02:10:10.430Z,85.28
2023-02-04T02:11:10.437Z,85.38
2023-02-04T02:12:10.410Z,84.86
2023-02-04T02:13:10.459Z,85.69
2023-02-04T02:14:10.384Z,85.69
2023-02-04T02:15:10.403Z,85.69
2023-02-04T02:16:10.379Z,85.49
2023-02-04T02:17:10.349Z,85.49
2023-02-04T02:18:10.352Z,85.49
2023-02-04T02:19:10.376Z,84.75
2023-02-04T02:20:10.314Z,85.06
2023-02-04T02:21:10.304Z,85.28
2023-02-04T02:22:10.307Z,85.17
2023-02-04T02:23:10.335Z,84.96
2023-02-04T02:24:10.278Z,84.86
2023-02-04T02:25:10.358Z,84.96
2023-02-04T02:26:10.248Z,84.96
2023-02-04T02:27:10.233Z,84.65
2023-02-04T02:28:10.251Z,84.75
2023-02-04T02:29:10.207Z,84.65
2023-02-04T02:30:10.204Z,84.96
2023-02-04T02:31:10.347Z,84.96
2023-02-04T02:32:10.238Z,84.96
2023-02-04T02:33:10.217Z,85.17
2023-02-04T02:34:10.228Z,85.03
2023-02-04T02:35:10.143Z,85.38
2023-02-04T02:36:10.142Z,85.38
2023-02-04T02:37:10.163Z,85.28
2023-02-04T02:38:10.110Z,85.28
2023-02-04T02:39:10.110Z,85.38
2023-02-04T02:40:10.094Z,85.69
2023-02-04T02:41:10.111Z,85.28
2023-02-04T02:42:10.059Z,85.49
2023-02-04T02:43:10.073Z,85.38
2023-02-04T02:44:10.062Z,85.75
2023-02-04T02:45:10.025Z,85.49
2023-02-04T02:46:10.055Z,84.92
2023-02-04T02:47:10.001Z,84.86
2023-02-04T02:48:10.004Z,84.75
2023-02-04T02:49:10.016Z,85.06
2023-02-04T02:50:10.036Z,84.75
2023-02-04T02:51:09.958Z,84.86
2023-02-04T02:52:09.943Z,84.96
2023-02-04T02:53:09.953Z,84.75
2023-02-04T02:54:09.946Z,85.06
2023-02-04T02:55:09.937Z,84.96
2023-02-04T02:56:09.910Z,85.06
2023-02-04T02:57:09.911Z,84.75
2023-02-04T02:58:09.875Z,85.06
2023-02-04T02:59:09.865Z,84.86
2023-02-04T03:00:09.850Z,85.06
2023-02-04T03:01:09.975Z,84.86
2023-02-04T03:02:09.869Z,85.17
2023-02-04T03:03:09.822Z,85.06
2023-02-04T03:04:09.802Z,85.28
2023-02-04T03:05:09.801Z,84.75
2023-02-04T03:06:09.790Z,84.86
2023-02-04T03:07:09.911Z,85.17
2023-02-04T03:08:09.760Z,84.96
2023-02-04T03:09:09.884Z,84.65
2023-02-04T03:10:09.741Z,84.75
2023-02-04T03:11:09.724Z,84.96
2023-02-04T03:12:09.715Z,84.75
2023-02-04T03:13:09.751Z,84.75
2023-02-04T03:14:09.692Z,85.06
2023-02-04T03:15:09.675Z,85.49
2023-02-04T03:16:09.743Z,85.59
2023-02-04T03:17:09.653Z,85.49
2023-02-04T03:18:09.642Z,85.59
2023-02-04T03:19:09.651Z,85.38
2023-02-04T03:20:09.637Z,85.69
2023-02-04T03:21:09.620Z,85.28
2023-02-04T03:22:09.671Z,85.06
2023-02-04T03:23:09.592Z,84.75
2023-02-04T03:24:09.585Z,84.96
2023-02-04T03:25:09.594Z,84.75
2023-02-04T03:26:09.558Z,84.75
2023-02-04T03:27:09.554Z,84.65
2023-02-04T03:28:09.648Z,84.75
2023-02-04T03:29:09.545Z,84.75
2023-02-04T03:30:09.515Z,85.17
2023-02-04T03:31:09.663Z,84.65
2023-02-04T03:32:09.498Z,84.75
2023-02-04T03:33:09.479Z,84.75
2023-02-04T03:34:09.563Z,84.96
2023-02-04T03:35:09.459Z,85.06
2023-02-04T03:36:09.448Z,84.86
2023-02-04T03:37:09.499Z,84.96
2023-02-04T03:38:09.436Z,84.96
2023-02-04T03:39:09.425Z,84.65
2023-02-04T03:40:09.406Z,84.96
2023-02-04T03:41:09.395Z,84.86
2023-02-04T03:42:09.380Z,84.86
2023-02-04T03:43:09.401Z,84.75
2023-02-04T03:44:09.353Z,84.86
2023-02-04T03:45:09.368Z,84.86
2023-02-04T03:46:09.347Z,85.17
2023-02-04T03:47:09.321Z,84.75
2023-02-04T03:48:09.314Z,86.00
2023-02-04T03:49:09.319Z,85.59
2023-02-04T03:50:09.288Z,85.38
2023-02-04T03:51:09.284Z,85.69
2023-02-04T03:52:09.266Z,85.80
2023-02-04T03:53:09.262Z,85.49
2023-02-04T03:54:09.240Z,85.49
2023-02-04T03:55:09.263Z,85.59
2023-02-04T03:56:09.243Z,85.44
2023-02-04T03:57:09.205Z,85.28
2023-02-04T03:58:09.191Z,85.59
2023-02-04T03:59:09.218Z,85.44
2023-02-04T04:00:09.175Z,85.75
2023-02-04T04:01:09.220Z,85.80
2023-02-04T04:02:09.158Z,85.80
2023-02-04T04:03:09.213Z,84.86
2023-02-04T04:04:09.133Z,85.06
2023-02-04T04:05:09.162Z,84.96
2023-02-04T04:06:09.106Z,84.96
2023-02-04T04:07:09.275Z,85.28
2023-02-04T04:08:09.100Z,84.75
2023-02-04T04:09:09.095Z,84.96
2023-02-04T04:10:09.057Z,84.75
2023-02-04T04:11:09.090Z,84.65
2023-02-04T04:12:09.030Z,85.17
2023-02-04T04:13:09.051Z,85.06
2023-02-04T04:14:09.019Z,84.86
2023-02-04T04:15:09.092Z,84.96
2023-02-04T04:16:09.104Z,84.96
2023-02-04T04:17:09.002Z,84.65
2023-02-04T04:18:08.970Z,84.69
2023-02-04T04:19:08.989Z,85.17
2023-02-04T04:20:08.942Z,85.06
2023-02-04T04:21:09.059Z,85.49
2023-02-04T04:22:08.929Z,85.28
2023-02-04T04:23:08.920Z,85.38
2023-02-04T04:24:08.903Z,85.28
2023-02-04T04:25:09.024Z,85.06
2023-02-04T04:26:08.877Z,85.38
2023-02-04T04:27:09.007Z,85.17
2023-02-04T04:28:08.907Z,85.06
2023-02-04T04:29:08.841Z,85.59
2023-02-04T04:30:08.834Z,85.49
2023-02-04T04:31:08.998Z,85.38
2023-02-04T04:32:08.901Z,85.49
2023-02-04T04:33:08.820Z,85.59
2023-02-04T04:34:08.795Z,85.69
2023-02-04T04:35:08.778Z,85.38
2023-02-04T04:36:08.759Z,85.59
2023-02-04T04:37:08.885Z,85.28
2023-02-04T04:38:08.738Z,85.38
2023-02-04T04:39:08.726Z,85.28
2023-02-04T04:40:08.719Z,85.59
2023-02-04T04:41:08.724Z,85.28
2023-02-04T04:42:08.696Z,85.38
2023-02-04T04:43:08.892Z,85.49
2023-02-04T04:44:08.669Z,85.38
2023-02-04T04:45:08.661Z,85.59
2023-02-04T04:46:08.680Z,85.38
2023-02-04T04:47:08.640Z,85.28
2023-02-04T04:48:08.622Z,85.49
2023-02-04T04:49:08.659Z,85.59
2023-02-04T04:50:08.607Z,85.49
2023-02-04T04:51:08.597Z,85.38
2023-02-04T04:52:08.574Z,85.59
2023-02-04T04:53:08.568Z,85.38
2023-02-04T04:54:08.558Z,85.69
2023-02-04T04:55:08.610Z,85.69
2023-02-04T04:56:08.542Z,85.69
2023-02-04T04:57:08.528Z,85.69
2023-02-04T04:58:08.510Z,85.59
2023-02-04T04:59:08.530Z,85.69
2023-02-04T05:00:08.484Z,85.69
2023-02-04T05:01:08.569Z,85.49
2023-02-04T05:02:08.468Z,85.38
2023-02-04T05:03:08.457Z,84.96
2023-02-04T05:04:08.451Z,85.28
2023-02-04T05:05:08.677Z,85.69
2023-02-04T05:06:08.458Z,85.28
2023-02-04T05:07:08.505Z,85.59
2023-02-04T05:08:08.407Z,85.69
2023-02-04T05:09:08.400Z,85.80
2023-02-04T05:10:08.382Z,85.69
2023-02-04T05:11:08.373Z,85.69
2023-02-04T05:12:08.356Z,85.59
2023-02-04T05:13:08.381Z,85.38
2023-02-04T05:14:08.336Z,85.49
2023-02-04T05:15:08.327Z,85.69
2023-02-04T05:16:08.395Z,85.69
2023-02-04T05:17:08.314Z,85.38
2023-02-04T05:18:08.293Z,85.69
2023-02-04T05:19:08.336Z,85.59
2023-02-04T05:20:08.272Z,85.38
2023-02-04T05:21:08.281Z,85.59
2023-02-04T05:22:08.252Z,85.49
2023-02-04T05:23:08.249Z,85.59
2023-02-04T05:24:08.253Z,85.59
2023-02-04T05:25:08.248Z,85.38
2023-02-04T05:26:08.208Z,85.49
2023-02-04T05:27:08.199Z,85.28
2023-02-04T05:28:08.274Z,85.38
2023-02-04T05:29:10.395Z,85.17
2023-02-04T05:30:08.222Z,85.17
2023-02-04T05:31:08.337Z,85.17
2023-02-04T05:32:08.140Z,85.49
2023-02-04T05:33:08.126Z,85.49
2023-02-04T05:34:08.108Z,85.38
2023-02-04T05:35:08.114Z,85.59
2023-02-04T05:36:08.086Z,85.17
2023-02-04T05:37:08.210Z,85.28
2023-02-04T05:38:08.065Z,85.59
2023-02-04T05:39:08.053Z,85.17
2023-02-04T05:40:08.045Z,85.28
2023-02-04T05:41:08.029Z,85.59
2023-02-04T05:42:08.021Z,85.38
2023-02-04T05:43:08.039Z,85.59
2023-02-04T05:44:08.005Z,85.59
2023-02-04T05:45:08.010Z,85.49
2023-02-04T05:46:08.041Z,85.28
2023-02-04T05:47:07.960Z,85.38
2023-02-04T05:48:07.950Z,85.28
2023-02-04T05:49:07.976Z,85.69
2023-02-04T05:50:08.059Z,85.49
2023-02-04T05:51:07.918Z,85.38
2023-02-04T05:52:07.912Z,85.49
2023-02-04T05:53:07.917Z,85.38
2023-02-04T05:54:07.893Z,85.38
2023-02-04T05:55:07.913Z,85.38
2023-02-04T05:56:07.867Z,85.38
2023-02-04T05:57:07.854Z,85.49
2023-02-04T05:58:07.834Z,85.59
2023-02-04T05:59:07.830Z,85.28
2023-02-04T06:00:07.812Z,85.17
2023-02-04T06:01:07.842Z,85.28
2023-02-04T06:02:07.789Z,85.38
2023-02-04T06:03:07.862Z,85.38
2023-02-04T06:04:07.868Z,85.17
2023-02-04T06:05:07.756Z,85.28
2023-02-04T06:06:07.748Z,85.17
2023-02-04T06:07:07.764Z,85.38
2023-02-04T06:08:07.730Z,85.28
2023-02-04T06:09:07.744Z,85.38
2023-02-04T06:10:07.722Z,85.38
2023-02-04T06:11:07.688Z,85.59
2023-02-04T06:12:07.681Z,85.80
2023-02-04T06:13:07.697Z,85.44
2023-02-04T06:14:07.695Z,85.69
2023-02-04T06:15:07.667Z,85.59
2023-02-04T06:16:07.633Z,85.75
2023-02-04T06:17:07.629Z,85.49
2023-02-04T06:18:07.612Z,85.59
2023-02-04T06:19:07.659Z,85.55
2023-02-04T06:20:07.685Z,85.55
2023-02-04T06:21:07.575Z,85.44
2023-02-04T06:22:07.598Z,85.55
2023-02-04T06:23:07.563Z,85.44
2023-02-04T06:24:07.544Z,85.59
2023-02-04T06:25:07.583Z,85.34
2023-02-04T06:26:07.517Z,85.55
2023-02-04T06:27:07.520Z,85.55
2023-02-04T06:28:07.513Z,85.24
2023-02-04T06:29:07.513Z,85.55
2023-02-04T06:30:07.480Z,85.44
2023-02-04T06:31:07.607Z,85.44
2023-02-04T06:32:07.456Z,85.55
2023-02-04T06:33:07.466Z,85.55
2023-02-04T06:34:07.430Z,85.65
2023-02-04T06:35:07.445Z,85.44
2023-02-04T06:36:07.417Z,85.65
2023-02-04T06:37:07.435Z,85.75
2023-02-04T06:38:07.408Z,85.44
2023-02-04T06:39:07.376Z,85.55
2023-02-04T06:40:07.373Z,85.51
2023-02-04T06:41:07.380Z,85.51
2023-02-04T06:42:07.341Z,85.24
2023-02-04T06:43:07.413Z,85.72
2023-02-04T06:44:07.324Z,85.20
2023-02-04T06:45:07.310Z,85.41
2023-02-04T06:46:07.421Z,85.30
2023-02-04T06:47:07.287Z,85.20
2023-02-04T06:48:07.281Z,85.20
2023-02-04T06:49:07.329Z,84.99
2023-02-04T06:50:07.258Z,85.20
2023-02-04T06:51:07.265Z,85.30
2023-02-04T06:52:07.243Z,85.30
2023-02-04T06:53:07.224Z,85.51
2023-02-04T06:54:07.209Z,85.10
2023-02-04T06:55:07.245Z,85.41
2023-02-04T06:56:07.183Z,85.51
2023-02-04T06:57:07.203Z,85.41
2023-02-04T06:58:07.196Z,85.30
2023-02-04T06:59:07.152Z,85.30
2023-02-04T07:00:07.182Z,85.51
2023-02-04T07:01:07.316Z,85.41
2023-02-04T07:02:07.144Z,85.30
2023-02-04T07:03:07.106Z,85.47
2023-02-04T07:04:07.099Z,85.41
2023-02-04T07:05:07.095Z,85.16
2023-02-04T07:06:07.082Z,85.16
2023-02-04T07:07:07.082Z,85.57
2023-02-04T07:08:07.057Z,85.36
2023-02-04T07:09:07.042Z,85.36
2023-02-04T07:10:07.031Z,85.22
2023-02-04T07:11:07.025Z,84.95
2023-02-04T07:12:07.009Z,84.64
2023-02-04T07:13:07.032Z,84.81
2023-02-04T07:14:06.993Z,84.70
2023-02-04T07:15:06.989Z,84.60
2023-02-04T07:16:07.016Z,84.81
2023-02-04T07:17:06.949Z,84.50
2023-02-04T07:18:06.940Z,84.91
2023-02-04T07:19:06.969Z,84.70
2023-02-04T07:20:06.918Z,84.60
2023-02-04T07:21:06.912Z,84.60
2023-02-04T07:22:06.891Z,84.60
2023-02-04T07:23:06.884Z,84.88
2023-02-04T07:24:06.874Z,84.77
2023-02-04T07:25:06.879Z,84.77
2023-02-04T07:26:06.856Z,85.43
2023-02-04T07:27:06.863Z,84.98
2023-02-04T07:28:06.910Z,84.77
2023-02-04T07:29:08.542Z,84.67
2023-02-04T07:30:07.863Z,84.77
2023-02-04T07:31:06.851Z,84.98
2023-02-04T07:32:06.896Z,84.77
2023-02-04T07:33:06.783Z,84.77
2023-02-04T07:34:06.757Z,85.08
2023-02-04T07:35:06.798Z,85.08
2023-02-04T07:36:06.751Z,84.77
2023-02-04T07:37:06.803Z,84.56
2023-02-04T07:38:06.757Z,84.67
2023-02-04T07:39:06.699Z,84.83
2023-02-04T07:40:06.691Z,84.52
2023-02-04T07:41:06.672Z,84.31
2023-02-04T07:42:06.688Z,84.52
2023-02-04T07:43:06.655Z,84.63
2023-02-04T07:44:06.649Z,84.00
2023-02-04T07:45:06.667Z,84.42
2023-02-04T07:46:06.664Z,84.11
2023-02-04T07:47:06.610Z,84.15
2023-02-04T07:48:06.631Z,84.21
2023-02-04T07:49:06.653Z,84.31
2023-02-04T07:50:06.593Z,84.77
2023-02-04T07:51:06.554Z,84.21
2023-02-04T07:52:06.550Z,84.63
2023-02-04T07:53:06.547Z,84.31
2023-02-04T07:54:06.572Z,84.52
2023-02-04T07:55:06.510Z,84.83
2023-02-04T07:56:06.506Z,84.73
2023-02-04T07:57:06.489Z,84.83
2023-02-04T07:58:07.392Z,84.63
2023-02-04T07:59:06.472Z,84.73
2023-02-04T08:00:06.474Z,84.48
2023-02-04T08:01:06.476Z,84.48
2023-02-04T08:02:06.435Z,84.59
2023-02-04T08:03:06.521Z,84.69
2023-02-04T08:04:06.412Z,84.38
2023-02-04T08:05:06.399Z,84.44
2023-02-04T08:06:06.461Z,84.13
2023-02-04T08:07:06.404Z,84.03
2023-02-04T08:08:06.366Z,84.34
2023-02-04T08:09:06.352Z,83.78
2023-02-04T08:10:06.368Z,83.93
2023-02-04T08:11:06.332Z,84.03
2023-02-04T08:12:06.352Z,84.34
2023-02-04T08:13:06.307Z,84.34
2023-02-04T08:14:06.296Z,83.83
2023-02-04T08:15:06.281Z,84.41
2023-02-04T08:16:06.443Z,84.09
2023-02-04T08:17:06.371Z,84.30
2023-02-04T08:18:06.350Z,84.30
2023-02-04T08:19:06.240Z,84.09
2023-02-04T08:20:06.224Z,83.99
2023-02-04T08:21:06.315Z,84.23
2023-02-04T08:22:06.230Z,83.99
2023-02-04T08:23:06.221Z,83.62
2023-02-04T08:24:06.192Z,83.93
2023-02-04T08:25:06.232Z,84.03
2023-02-04T08:26:06.250Z,84.13
2023-02-04T08:27:06.175Z,84.34
2023-02-04T08:28:06.374Z,84.34
2023-02-04T08:29:06.119Z,84.55
2023-02-04T08:30:06.152Z,84.03
2023-02-04T08:31:06.221Z,84.17
2023-02-04T08:32:06.154Z,84.38
2023-02-04T08:33:06.102Z,84.28
2023-02-04T08:34:06.087Z,84.38
2023-02-04T08:35:06.570Z,83.86
2023-02-04T08:36:06.087Z,84.38
2023-02-04T08:37:06.029Z,83.69
2023-02-04T08:38:06.031Z,83.69
2023-02-04T08:39:06.021Z,84.00
2023-02-04T08:40:05.998Z,83.63
2023-02-04T08:41:05.991Z,84.25
2023-02-04T08:42:06.082Z,84.39
2023-02-04T08:43:05.973Z,84.19
2023-02-04T08:44:05.970Z,84.39
2023-02-04T08:45:05.970Z,83.77
2023-02-04T08:46:05.992Z,84.43
2023-02-04T08:47:05.927Z,84.33
2023-02-04T08:48:06.038Z,84.37
2023-02-04T08:49:05.937Z,84.53
2023-02-04T08:50:05.920Z,84.78
2023-02-04T08:51:05.888Z,84.47
2023-02-04T08:52:05.903Z,84.47
2023-02-04T08:53:05.891Z,84.58
2023-02-04T08:54:05.886Z,84.47
2023-02-04T08:55:05.876Z,84.16
2023-02-04T08:56:05.860Z,84.58
2023-02-04T08:57:05.940Z,84.58
2023-02-04T08:58:05.851Z,84.68
2023-02-04T08:59:05.820Z,84.89
2023-02-04T09:00:05.846Z,84.58
2023-02-04T09:01:05.866Z,84.01
2023-02-04T09:02:05.881Z,84.22
2023-02-04T09:03:05.764Z,83.91
2023-02-04T09:04:05.757Z,83.91
2023-02-04T09:05:05.796Z,83.91
2023-02-04T09:06:05.748Z,83.70
2023-02-04T09:07:05.729Z,84.01
2023-02-04T09:08:05.719Z,83.77
2023-02-04T09:09:05.739Z,83.87
2023-02-04T09:10:05.693Z,83.77
2023-02-04T09:11:05.680Z,83.25
2023-02-04T09:12:05.821Z,83.42
2023-02-04T09:13:05.661Z,83.32
2023-02-04T09:14:05.670Z,83.17
2023-02-04T09:15:05.643Z,83.17
2023-02-04T09:16:05.661Z,83.17
2023-02-04T09:17:05.646Z,83.28
2023-02-04T09:18:05.623Z,82.86
2023-02-04T09:19:05.626Z,82.82
2023-02-04T09:20:05.584Z,83.03
2023-02-04T09:21:05.610Z,82.93
2023-02-04T09:22:05.567Z,83.03
2023-02-04T09:23:05.554Z,83.03
2023-02-04T09:24:05.574Z,82.51
2023-02-04T09:25:05.558Z,83.10
2023-02-04T09:26:05.528Z,83.10
2023-02-04T09:27:05.518Z,83.14
2023-02-04T09:28:05.591Z,83.20
2023-02-04T09:29:05.491Z,83.10
2023-02-04T09:30:05.500Z,83.31
2023-02-04T09:31:05.533Z,83.00
2023-02-04T09:32:05.519Z,83.20
2023-02-04T09:33:05.504Z,83.26
2023-02-04T09:34:06.019Z,83.20
2023-02-04T09:35:05.442Z,83.16
2023-02-04T09:36:05.473Z,83.10
2023-02-04T09:37:05.420Z,83.20
2023-02-04T09:38:05.401Z,83.31
2023-02-04T09:39:05.455Z,83.41
2023-02-04T09:40:05.368Z,83.65
2023-02-04T09:41:05.384Z,83.24
2023-02-04T09:42:05.363Z,83.34
2023-02-04T09:43:05.349Z,83.65
2023-02-04T09:44:05.328Z,83.97
2023-02-04T09:45:05.318Z,83.59
2023-02-04T09:46:05.418Z,83.59
2023-02-04T09:47:05.297Z,83.80
2023-02-04T09:48:05.348Z,83.59
2023-02-04T09:49:05.268Z,83.59
2023-02-04T09:50:05.426Z,83.80
2023-02-04T09:51:05.248Z,84.15
2023-02-04T09:52:05.241Z,83.94
2023-02-04T09:53:05.322Z,83.84
2023-02-04T09:54:05.247Z,84.36
2023-02-04T09:55:05.308Z,83.84
2023-02-04T09:56:05.181Z,83.56
2023-02-04T09:57:05.206Z,83.87
2023-02-04T09:58:05.154Z,83.70
2023-02-04T09:59:05.162Z,84.19
2023-02-04T10:00:05.153Z,83.70
2023-02-04T10:01:05.218Z,84.12
2023-02-04T10:02:05.108Z,84.43
2023-02-04T10:03:05.112Z,84.27
2023-02-04T10:04:05.151Z,84.43
2023-02-04T10:05:05.076Z,84.43
2023-02-04T10:06:05.091Z,84.43
2023-02-04T10:07:05.048Z,83.70
2023-02-04T10:08:05.053Z,84.16
2023-02-04T10:09:05.052Z,84.37
2023-02-04T10:10:05.005Z,84.37
2023-02-04T10:11:05.004Z,84.16
2023-02-04T10:12:05.020Z,84.47
2023-02-04T10:13:05.012Z,84.16
2023-02-04T10:14:04.970Z,84.41
2023-02-04T10:15:04.949Z,84.16
2023-02-04T10:16:04.971Z,84.09
2023-02-04T10:17:05.020Z,84.41
2023-02-04T10:18:04.955Z,84.51
2023-02-04T10:19:04.926Z,83.74
2023-02-04T10:20:04.894Z,83.74
2023-02-04T10:21:04.921Z,84.37
2023-02-04T10:22:04.875Z,83.74
2023-02-04T10:23:04.861Z,83.84
2023-02-04T10:24:04.902Z,84.05
2023-02-04T10:25:04.864Z,83.84
2023-02-04T10:26:04.880Z,83.64
2023-02-04T10:27:04.820Z,83.84
2023-02-04T10:28:04.982Z,83.95
2023-02-04T10:29:04.795Z,84.09
2023-02-04T10:30:04.824Z,83.74
2023-02-04T10:31:04.895Z,83.74
2023-02-04T10:32:04.780Z,83.74
2023-02-04T10:33:04.959Z,83.95
2023-02-04T10:34:04.740Z,83.89
2023-02-04T10:35:04.796Z,83.84
2023-02-04T10:36:04.756Z,84.05
2023-02-04T10:37:04.728Z,84.30
2023-02-04T10:38:04.706Z,84.30
2023-02-04T10:39:04.687Z,83.99
2023-02-04T10:40:04.825Z,84.09
2023-02-04T10:41:04.717Z,83.89
2023-02-04T10:42:04.734Z,84.44
2023-02-04T10:43:04.648Z,84.75
2023-02-04T10:44:04.641Z,83.92
2023-02-04T10:45:04.615Z,84.34
2023-02-04T10:46:04.698Z,84.65
2023-02-04T10:47:04.596Z,84.48
2023-02-04T10:48:04.618Z,84.59
2023-02-04T10:49:04.578Z,84.69
2023-02-04T10:50:04.652Z,84.80
2023-02-04T10:51:04.566Z,84.90
2023-02-04T10:52:04.544Z,84.69
2023-02-04T10:53:04.536Z,84.48
2023-02-04T10:54:04.552Z,84.94
2023-02-04T10:55:04.507Z,84.73
2023-02-04T10:56:04.504Z,84.80
2023-02-04T10:57:04.512Z,84.38
2023-02-04T10:58:04.483Z,84.38
2023-02-04T10:59:04.469Z,84.59
2023-02-04T11:00:04.475Z,84.69
2023-02-04T11:01:04.518Z,84.38
2023-02-04T11:02:04.439Z,83.96
2023-02-04T11:03:04.483Z,84.34
2023-02-04T11:04:04.409Z,83.92
2023-02-04T11:05:04.422Z,83.92
2023-02-04T11:06:04.514Z,83.82
2023-02-04T11:07:04.430Z,83.82
2023-02-04T11:08:04.363Z,83.78
2023-02-04T11:09:04.352Z,83.78
2023-02-04T11:10:04.364Z,83.78
2023-02-04T11:11:04.349Z,83.89
2023-02-04T11:12:04.344Z,83.84
2023-02-04T11:13:04.331Z,83.33
2023-02-04T11:14:04.404Z,83.53
2023-02-04T11:15:04.309Z,84.05
2023-02-04T11:16:04.409Z,83.95
2023-02-04T11:17:04.265Z,83.99
2023-02-04T11:18:04.306Z,83.89
2023-02-04T11:19:04.241Z,83.99
2023-02-04T11:20:04.239Z,83.89
2023-02-04T11:21:04.248Z,84.13
2023-02-04T11:22:04.213Z,84.55
2023-02-04T11:23:04.197Z,84.34
2023-02-04T11:24:04.222Z,84.34
2023-02-04T11:25:04.187Z,84.44
2023-02-04T11:26:04.190Z,84.48
2023-02-04T11:27:04.155Z,84.38
2023-02-04T11:28:04.173Z,84.69
2023-02-04T11:29:04.167Z,84.69
2023-02-04T11:30:04.159Z,84.73
2023-02-04T11:31:04.217Z,84.73
2023-02-04T11:32:04.098Z,84.63
2023-02-04T11:33:04.093Z,84.90
2023-02-04T11:34:04.077Z,84.73
2023-02-04T11:35:04.064Z,85.21
2023-02-04T11:36:04.082Z,84.55
2023-02-04T11:37:04.207Z,84.75
2023-02-04T11:38:04.036Z,84.65
2023-02-04T11:39:04.021Z,84.55
2023-02-04T11:40:04.004Z,84.96
2023-02-04T11:41:03.997Z,84.65
2023-02-04T11:42:04.016Z,84.65
2023-02-04T11:43:03.975Z,84.75
2023-02-04T11:44:03.982Z,84.44
2023-02-04T11:45:03.965Z,85.03
2023-02-04T11:46:04.005Z,84.09
2023-02-04T11:47:03.922Z,84.41
2023-02-04T11:48:03.954Z,84.09
2023-02-04T11:49:03.907Z,83.89
2023-02-04T11:50:03.943Z,84.30
2023-02-04T11:51:03.887Z,84.61
2023-02-04T11:52:03.892Z,84.65
2023-02-04T11:53:03.862Z,84.72
2023-02-04T11:54:03.873Z,84.72
2023-02-04T11:55:03.866Z,84.92
2023-02-04T11:56:03.824Z,84.82
2023-02-04T11:57:03.836Z,84.61
2023-02-04T11:58:03.828Z,84.61
2023-02-04T11:59:03.788Z,84.23
2023-02-04T12:00:03.879Z,84.34
2023-02-04T12:01:03.788Z,84.55
2023-02-04T12:02:03.765Z,84.82
2023-02-04T12:03:03.846Z,84.61
2023-02-04T12:04:03.830Z,84.51
2023-02-04T12:05:03.832Z,84.41
2023-02-04T12:06:03.745Z,83.99
2023-02-04T12:07:03.703Z,84.20
2023-02-04T12:08:03.691Z,84.09
2023-02-04T12:09:03.738Z,83.89
2023-02-04T12:10:03.678Z,83.84
2023-02-04T12:11:03.664Z,84.05
2023-02-04T12:12:03.687Z,83.95
2023-02-04T12:13:03.629Z,83.22
2023-02-04T12:14:03.622Z,83.74
2023-02-04T12:15:03.621Z,83.64
2023-02-04T12:16:03.661Z,83.84
2023-02-04T12:17:03.617Z,83.95
2023-02-04T12:18:03.612Z,83.95
2023-02-04T12:19:03.588Z,84.09
2023-02-04T12:20:03.565Z,84.30
2023-02-04T12:21:03.540Z,83.89
2023-02-04T12:22:03.533Z,83.84
2023-02-04T12:23:03.526Z,84.37
2023-02-04T12:24:03.574Z,83.84
2023-02-04T12:25:03.497Z,84.30
2023-02-04T12:26:03.604Z,84.09
2023-02-04T12:27:03.472Z,83.89
2023-02-04T12:28:03.544Z,83.99
2023-02-04T12:29:03.502Z,83.78
2023-02-04T12:30:03.467Z,83.95
2023-02-04T12:31:03.574Z,84.16
2023-02-04T12:32:03.505Z,84.05
2023-02-04T12:33:03.430Z,84.41
2023-02-04T12:34:03.394Z,84.43
2023-02-04T12:35:03.391Z,83.74
2023-02-04T12:36:03.443Z,83.81
2023-02-04T12:37:03.360Z,84.05
2023-02-04T12:38:03.352Z,84.27
2023-02-04T12:39:03.339Z,84.37
2023-02-04T12:40:03.334Z,84.22
2023-02-04T12:41:03.316Z,84.37
2023-02-04T12:42:03.433Z,84.47
2023-02-04T12:43:03.294Z,84.58
2023-02-04T12:44:03.285Z,84.51
2023-02-04T12:45:03.292Z,84.05
2023-02-04T12:46:03.258Z,83.91
2023-02-04T12:47:03.244Z,84.53
2023-02-04T12:48:03.356Z,83.91
2023-02-04T12:49:03.245Z,84.19
2023-02-04T12:50:03.214Z,84.39
2023-02-04T12:51:03.203Z,84.29
2023-02-04T12:52:03.191Z,84.12